createdAt,value
2018-10-01T00:00:47.552Z,98052.52
2018-10-01T00:03:15.834Z,98047.96
2018-10-01T00:05:44.224Z,98048.69
2018-10-01T00:08:12.745Z,98056.73
2018-10-01T00:10:41.195Z,98060.95
2018-10-01T00:13:09.633Z,98061.67
2018-10-01T00:15:38.154Z,98065.14
2018-10-01T00:18:06.473Z,98055.80
2018-10-01T00:20:40.108Z,98053.69
2018-10-01T00:23:08.414Z,98052.20
2018-10-01T00:25:36.866Z,98050.81
2018-10-01T00:28:05.328Z,98046.18
2018-10-01T00:30:33.720Z,98047.39
2018-10-01T00:33:02.383Z,98053.22
2018-10-01T00:35:30.797Z,98050.61
2018-10-01T00:37:59.192Z,98053.04
2018-10-01T00:40:27.479Z,98054.39
2018-10-01T00:42:55.983Z,98043.81
2018-10-01T00:45:24.290Z,98040.30
2018-10-01T00:47:52.737Z,98039.73
2018-10-01T00:50:21.121Z,98041.48
2018-10-01T00:52:49.428Z,98035.06
2018-10-01T00:55:17.764Z,98036.73
2018-10-01T00:57:46.182Z,98034.97
2018-10-01T01:00:14.506Z,98034.05
2018-10-01T01:02:42.882Z,98034.22
2018-10-01T01:05:11.186Z,98035.43
2018-10-01T01:07:39.596Z,98034.35
2018-10-01T01:10:07.893Z,98034.64
2018-10-01T01:12:36.436Z,98035.31
2018-10-01T01:15:04.862Z,98033.25
2018-10-01T01:17:33.252Z,98033.00
2018-10-01T01:20:01.710Z,98031.48
2018-10-01T01:22:30.178Z,98028.11
2018-10-01T01:24:58.516Z,98019.36
2018-10-01T01:27:27.152Z,98024.57
2018-10-01T01:29:55.520Z,98020.48
2018-10-01T01:32:24.338Z,98027.87
2018-10-01T01:34:52.672Z,98022.36
2018-10-01T01:37:21.373Z,98027.20
2018-10-01T01:39:49.831Z,98025.19
2018-10-01T01:42:18.238Z,98028.10
2018-10-01T01:44:46.585Z,98026.05
2018-10-01T01:47:15.098Z,98035.72
2018-10-01T01:49:43.471Z,98036.77
2018-10-01T01:52:11.880Z,98031.56
2018-10-01T01:54:40.207Z,98033.28
2018-10-01T01:57:08.595Z,98030.59
2018-10-01T01:59:36.930Z,98028.34
2018-10-01T02:02:05.327Z,98033.34
2018-10-01T02:04:33.610Z,98027.26
2018-10-01T02:07:01.974Z,98021.97
2018-10-01T02:09:30.305Z,98025.86
2018-10-01T02:12:05.359Z,98016.25
2018-10-01T02:14:33.776Z,98023.67
2018-10-01T02:17:02.430Z,98019.02
2018-10-01T02:19:35.411Z,98020.73
2018-10-01T02:22:04.250Z,98021.81
2018-10-01T02:24:34.532Z,98022.90
2018-10-01T02:27:03.035Z,98021.08
2018-10-01T02:29:31.623Z,98023.64
2018-10-01T02:32:00.144Z,98019.13
2018-10-01T02:34:28.714Z,98010.73
2018-10-01T02:36:57.287Z,98009.06
2018-10-01T02:39:25.911Z,98012.45
2018-10-01T02:41:56.742Z,98015.28
2018-10-01T02:44:25.393Z,98019.59
2018-10-01T02:46:53.961Z,98006.95
2018-10-01T02:49:22.439Z,98007.86
2018-10-01T02:51:58.268Z,98009.09
2018-10-01T02:54:53.685Z,98013.22
2018-10-01T02:57:36.779Z,98014.08
2018-10-01T03:03:24.199Z,98020.02
2018-10-01T03:05:52.910Z,98014.34
2018-10-01T03:08:22.000Z,98022.51
2018-10-01T03:10:50.683Z,98020.26
2018-10-01T03:13:19.364Z,98022.90
2018-10-01T03:15:48.075Z,98025.42
2018-10-01T03:18:17.827Z,98026.16
2018-10-01T03:20:46.654Z,98027.80
2018-10-01T03:23:15.332Z,98028.19
2018-10-01T03:25:44.098Z,98023.64
2018-10-01T03:28:14.005Z,98024.61
2018-10-01T03:30:43.084Z,98025.66
2018-10-01T03:33:11.935Z,98034.09
2018-10-01T03:35:40.630Z,98026.28
2018-10-01T03:38:09.075Z,98027.59
2018-10-01T03:40:37.549Z,98023.12
2018-10-01T03:43:06.071Z,98017.64
2018-10-01T03:45:34.802Z,98016.64
2018-10-01T03:48:03.430Z,98013.30
2018-10-01T03:50:31.927Z,98016.02
2018-10-01T03:53:12.345Z,98013.53
2018-10-01T03:55:41.061Z,98010.80
2018-10-01T03:58:09.603Z,98013.95
2018-10-01T04:00:58.080Z,98011.50
2018-10-01T04:03:26.471Z,98024.02
2018-10-01T04:05:59.433Z,98017.53
2018-10-01T04:08:27.826Z,98024.13
2018-10-01T04:10:56.363Z,98034.11
2018-10-01T04:13:25.328Z,98043.02
2018-10-01T04:15:53.777Z,98041.42
2018-10-01T04:18:22.294Z,98042.05
2018-10-01T04:20:50.749Z,98041.77
2018-10-01T04:23:19.179Z,98041.12
2018-10-01T04:25:50.995Z,98048.97
2018-10-01T04:28:19.484Z,98041.67
2018-10-01T04:30:47.942Z,98050.99
2018-10-01T04:39:03.100Z,98051.97
2018-10-01T04:41:31.553Z,98061.25
2018-10-01T04:44:00.198Z,98064.08
2018-10-01T04:46:28.621Z,98064.00
2018-10-01T04:48:57.090Z,98064.86
2018-10-01T04:51:25.522Z,98066.72
2018-10-01T04:53:54.123Z,98073.75
2018-10-01T04:56:22.657Z,98082.89
2018-10-01T05:01:55.731Z,98086.86
2018-10-01T05:04:24.056Z,98092.94
2018-10-01T05:06:52.616Z,98091.97
2018-10-01T05:09:21.248Z,98101.97
2018-10-01T05:11:49.888Z,98101.22
2018-10-01T05:14:20.731Z,98103.61
2018-10-01T05:16:49.231Z,98114.07
2018-10-01T05:19:17.734Z,98117.78
2018-10-01T05:21:46.305Z,98114.32
2018-10-01T05:24:14.825Z,98120.25
2018-10-01T05:26:43.511Z,98118.89
2018-10-01T05:29:12.041Z,98118.23
2018-10-01T05:31:40.754Z,98125.98
2018-10-01T05:34:09.677Z,98123.47
2018-10-01T05:36:38.472Z,98130.68
2018-10-01T05:39:10.128Z,98131.15
2018-10-01T05:41:39.053Z,98131.70
2018-10-01T05:44:07.769Z,98136.59
2018-10-01T05:46:36.495Z,98143.48
2018-10-01T05:49:05.216Z,98147.63
2018-10-01T05:51:33.964Z,98150.13
2018-10-01T05:54:02.583Z,98162.68
2018-10-01T05:56:31.194Z,98164.77
2018-10-01T05:58:59.869Z,98158.38
2018-10-01T06:01:33.396Z,98159.47
2018-10-01T06:04:02.289Z,98166.27
2018-10-01T06:06:30.843Z,98168.84
2018-10-01T06:08:59.497Z,98176.09
2018-10-01T06:11:28.505Z,98176.88
2018-10-01T06:13:57.127Z,98181.42
2018-10-01T06:16:26.891Z,98176.42
2018-10-01T06:18:55.820Z,98189.48
2018-10-01T06:21:24.556Z,98190.48
2018-10-01T06:23:53.981Z,98198.60
2018-10-01T06:26:22.705Z,98194.52
2018-10-01T06:28:53.330Z,98198.24
2018-10-01T06:31:22.822Z,98205.38
2018-10-01T06:33:51.715Z,98211.44
2018-10-01T06:36:22.575Z,98219.27
2018-10-01T06:38:53.018Z,98223.03
2018-10-01T06:41:27.647Z,98227.55
2018-10-01T06:43:56.576Z,98227.72
2018-10-01T06:46:25.150Z,98231.84
2018-10-01T06:48:53.660Z,98233.06
2018-10-01T06:51:22.261Z,98232.04
2018-10-01T06:56:44.534Z,98241.52
2018-10-01T06:59:13.106Z,98249.91
2018-10-01T07:01:41.751Z,98251.00
2018-10-01T07:04:10.392Z,98246.17
2018-10-01T07:06:40.413Z,98254.92
2018-10-01T07:09:10.809Z,98257.77
2018-10-01T07:11:40.364Z,98258.13
2018-10-01T07:14:08.936Z,98260.33
2018-10-01T07:16:43.283Z,98264.99
2018-10-01T07:19:11.775Z,98268.59
2018-10-01T07:21:40.234Z,98275.55
2018-10-01T07:24:08.702Z,98279.59
2018-10-01T07:26:37.388Z,98282.11
2018-10-01T07:29:06.053Z,98284.28
2018-10-01T07:31:34.639Z,98285.67
2018-10-01T07:34:03.116Z,98291.64
2018-10-01T07:36:32.720Z,98290.19
2018-10-01T07:39:01.354Z,98292.64
2018-10-01T07:41:29.827Z,98300.06
2018-10-01T07:44:15.195Z,98302.85
2018-10-01T07:46:43.846Z,98299.32
2018-10-01T07:49:12.655Z,98300.89
2018-10-01T07:51:41.340Z,98302.86
2018-10-01T07:54:10.278Z,98302.25
2018-10-01T07:56:38.793Z,98308.58
2018-10-01T07:59:28.768Z,98307.59
2018-10-01T08:01:57.439Z,98312.44
2018-10-01T08:04:25.978Z,98317.92
2018-10-01T08:06:54.739Z,98323.09
2018-10-01T08:09:23.354Z,98329.48
2018-10-01T08:11:52.126Z,98327.05
2018-10-01T08:14:20.743Z,98336.58
2018-10-01T08:16:49.302Z,98331.27
2018-10-01T08:19:17.837Z,98337.92
2018-10-01T08:21:46.317Z,98340.22
2018-10-01T08:30:00.548Z,98354.20
2018-10-01T08:32:50.570Z,98360.71
2018-10-01T08:35:19.180Z,98363.44
2018-10-01T08:37:47.683Z,98359.28
2018-10-01T08:40:16.130Z,98363.78
2018-10-01T08:42:44.855Z,98363.73
2018-10-01T08:45:25.764Z,98364.23
2018-10-01T08:47:55.329Z,98370.71
2018-10-01T08:51:27.907Z,98370.69
2018-10-01T08:54:08.217Z,98375.39
2018-10-01T08:56:36.653Z,98376.39
2018-10-01T08:59:11.452Z,98381.42
2018-10-01T09:01:46.723Z,98385.01
2018-10-01T09:04:15.285Z,98386.22
2018-10-01T09:06:51.137Z,98385.05
2018-10-01T09:09:19.855Z,98388.81
2018-10-01T09:11:58.325Z,98380.66
2018-10-01T09:14:26.926Z,98385.11
2018-10-01T09:16:55.603Z,98381.08
2018-10-01T09:19:24.205Z,98395.08
2018-10-01T09:21:52.660Z,98397.56
2018-10-01T09:24:21.225Z,98399.36
2018-10-01T09:26:49.861Z,98398.81
2018-10-01T09:29:18.486Z,98398.08
2018-10-01T09:31:47.185Z,98402.28
2018-10-01T09:34:15.750Z,98414.14
2018-10-01T09:36:44.273Z,98409.88
2018-10-01T09:39:12.817Z,98410.70
2018-10-01T09:41:41.410Z,98414.13
2018-10-01T09:44:10.107Z,98417.64
2018-10-01T09:46:38.997Z,98430.42
2018-10-01T09:49:07.579Z,98425.73
2018-10-01T09:51:36.147Z,98429.13
2018-10-01T09:54:04.604Z,98434.48
2018-10-01T09:56:33.928Z,98430.98
2018-10-01T09:59:02.326Z,98438.70
2018-10-01T10:01:30.781Z,98435.34
2018-10-01T10:03:59.259Z,98436.78
2018-10-01T10:06:27.747Z,98442.11
2018-10-01T10:08:56.186Z,98448.13
2018-10-01T10:11:26.155Z,98450.88
2018-10-01T10:13:55.345Z,98442.67
2018-10-01T10:16:25.751Z,98448.00
2018-10-01T10:18:54.271Z,98447.38
2018-10-01T10:21:22.823Z,98451.16
2018-10-01T10:23:51.250Z,98447.30
2018-10-01T10:29:12.770Z,98452.84
2018-10-01T10:31:41.193Z,98449.59
2018-10-01T10:34:09.726Z,98453.16
2018-10-01T10:36:38.035Z,98459.38
2018-10-01T10:39:11.219Z,98459.16
2018-10-01T10:41:39.800Z,98462.30
2018-10-01T10:44:08.205Z,98459.50
2018-10-01T10:46:36.580Z,98463.41
2018-10-01T10:49:06.090Z,98462.13
2018-10-01T10:51:34.701Z,98463.09
2018-10-01T10:54:03.275Z,98469.17
2018-10-01T10:56:31.757Z,98480.02
2018-10-01T10:59:00.234Z,98474.41
2018-10-01T11:01:28.699Z,98484.39
2018-10-01T11:03:59.260Z,98479.16
2018-10-01T11:06:27.703Z,98481.39
2018-10-01T11:08:56.263Z,98478.98
2018-10-01T11:11:25.095Z,98479.78
2018-10-01T11:14:03.370Z,98474.88
2018-10-01T11:16:31.961Z,98478.22
2018-10-01T11:19:00.968Z,98472.53
2018-10-01T11:21:29.490Z,98471.98
2018-10-01T11:23:58.013Z,98467.27
2018-10-01T11:26:26.546Z,98478.19
2018-10-01T11:28:55.170Z,98470.20
2018-10-01T11:31:23.699Z,98483.23
2018-10-01T11:33:52.270Z,98483.75
2018-10-01T11:36:21.414Z,98490.09
2018-10-01T11:38:50.315Z,98478.00
2018-10-01T11:41:18.795Z,98484.50
2018-10-01T11:43:47.181Z,98486.97
2018-10-01T11:46:15.884Z,98485.02
2018-10-01T11:48:44.399Z,98472.94
2018-10-01T11:51:13.041Z,98473.88
2018-10-01T11:53:41.465Z,98473.72
2018-10-01T11:56:09.875Z,98479.59
2018-10-01T11:58:38.386Z,98486.33
2018-10-01T12:01:06.777Z,98490.51
2018-10-01T12:03:36.329Z,98481.34
2018-10-01T12:06:04.678Z,98480.39
2018-10-01T12:08:33.158Z,98481.05
2018-10-01T12:13:58.132Z,98484.44
2018-10-01T12:16:26.851Z,98487.74
2018-10-01T12:19:10.067Z,98487.69
2018-10-01T12:21:38.505Z,98489.80
2018-10-01T12:24:06.981Z,98486.91
2018-10-01T12:26:35.332Z,98486.08
2018-10-01T12:29:03.799Z,98483.70
2018-10-01T12:31:32.288Z,98489.58
2018-10-01T12:34:00.816Z,98492.81
2018-10-01T12:36:29.146Z,98489.36
2018-10-01T12:38:57.616Z,98486.39
2018-10-01T12:41:26.188Z,98493.29
2018-10-01T12:43:54.506Z,98498.01
2018-10-01T12:46:23.126Z,98491.45
2018-10-01T12:48:51.557Z,98496.51
2018-10-01T12:51:20.160Z,98498.48
2018-10-01T12:53:49.794Z,98499.77
2018-10-01T12:56:18.348Z,98491.40
2018-10-01T12:58:47.491Z,98499.61
2018-10-01T13:01:15.915Z,98486.84
2018-10-01T13:03:44.626Z,98489.08
2018-10-01T13:06:13.091Z,98493.27
2018-10-01T13:08:41.885Z,98501.30
2018-10-01T13:11:11.052Z,98485.91
2018-10-01T13:13:41.272Z,98485.66
2018-10-01T13:16:15.181Z,98488.72
2018-10-01T13:18:45.332Z,98484.01
2018-10-01T13:21:16.350Z,98497.45
2018-10-01T13:23:46.265Z,98482.20
2018-10-01T13:26:15.041Z,98478.59
2018-10-01T13:28:43.590Z,98479.70
2018-10-01T13:31:12.098Z,98477.23
2018-10-01T13:33:40.638Z,98478.39
2018-10-01T13:36:09.205Z,98480.58
2018-10-01T13:38:42.296Z,98480.73
2018-10-01T13:41:10.723Z,98479.15
2018-10-01T13:43:39.545Z,98479.45
2018-10-01T13:46:11.588Z,98476.57
2018-10-01T13:48:40.226Z,98477.58
2018-10-01T13:51:08.759Z,98483.06
2018-10-01T13:53:37.456Z,98498.73
2018-10-01T13:56:05.863Z,98490.57
2018-10-01T13:58:40.071Z,98479.96
2018-10-01T14:01:08.693Z,98486.44
2018-10-01T14:03:37.211Z,98489.39
2018-10-01T14:06:05.842Z,98487.39
2018-10-01T14:08:36.969Z,98485.51
2018-10-01T14:11:10.846Z,98482.38
2018-10-01T14:13:58.467Z,98481.02
2018-10-01T14:42:41.049Z,98474.75
2018-10-01T14:45:20.796Z,98472.84
2018-10-01T14:56:41.062Z,98475.30
2018-10-01T14:59:20.176Z,98467.91
2018-10-01T15:01:50.768Z,98469.27
2018-10-01T15:04:20.275Z,98468.09
2018-10-01T15:06:55.520Z,98470.23
2018-10-01T15:09:28.733Z,98468.91
2018-10-01T15:11:59.894Z,98468.37
2018-10-01T15:14:28.360Z,98469.72
2018-10-01T15:16:56.936Z,98491.67
2018-10-01T15:19:25.592Z,98483.51
2018-10-01T15:21:54.048Z,98485.87
2018-10-01T15:24:23.581Z,98490.59
2018-10-01T15:26:52.024Z,98495.06
2018-10-01T15:29:20.768Z,98500.22
2018-10-01T15:31:50.600Z,98506.50
2018-10-01T15:34:19.253Z,98506.20
2018-10-01T15:36:47.745Z,98511.14
2018-10-01T15:39:16.986Z,98521.14
2018-10-01T15:41:46.437Z,98520.79
2018-10-01T15:44:15.098Z,98529.75
2018-10-01T15:46:43.471Z,98518.55
2018-10-01T15:49:11.805Z,98511.73
2018-10-01T15:51:41.050Z,98526.26
2018-10-01T15:54:09.606Z,98520.05
2018-10-01T15:56:38.052Z,98528.70
2018-10-01T15:59:06.623Z,98530.66
2018-10-01T16:01:35.176Z,98529.05
2018-10-01T16:04:03.727Z,98528.82
2018-10-01T16:06:32.109Z,98532.55
2018-10-01T16:09:00.629Z,98540.25
2018-10-01T16:11:29.136Z,98541.94
2018-10-01T16:13:57.780Z,98535.84
2018-10-01T16:16:28.602Z,98545.39
2018-10-01T16:18:57.437Z,98543.15
2018-10-01T16:21:26.523Z,98554.59
2018-10-01T16:23:55.166Z,98553.94
2018-10-01T16:26:24.334Z,98555.55
2018-10-01T16:28:53.393Z,98557.59
2018-10-01T16:31:22.499Z,98561.95
2018-10-01T16:33:50.904Z,98564.85
2018-10-01T16:36:19.702Z,98568.73
2018-10-01T16:38:48.332Z,98561.49
2018-10-01T16:41:16.751Z,98564.05
2018-10-01T16:43:45.377Z,98560.44
2018-10-01T16:46:13.821Z,98564.56
2018-10-01T16:48:42.238Z,98567.45
2018-10-01T16:51:10.717Z,98577.26
2018-10-01T16:53:40.031Z,98578.80
2018-10-01T16:56:13.721Z,98574.95
2018-10-01T16:58:42.142Z,98579.08
2018-10-01T17:01:12.808Z,98589.16
2018-10-01T17:03:41.313Z,98586.08
2018-10-01T17:06:09.846Z,98592.23
2018-10-01T17:08:40.396Z,98591.93
2018-10-01T17:11:08.878Z,98604.71
2018-10-01T17:13:37.303Z,98606.58
2018-10-01T17:16:05.972Z,98608.09
2018-10-01T17:18:34.802Z,98609.26
2018-10-01T17:21:03.542Z,98611.52
2018-10-01T17:23:36.344Z,98609.83
2018-10-01T17:26:04.899Z,98618.23
2018-10-01T17:28:35.535Z,98629.16
2018-10-01T17:31:04.269Z,98634.88
2018-10-01T17:33:32.741Z,98639.64
2018-10-01T17:36:03.355Z,98660.88
2018-10-01T17:38:32.028Z,98668.28
2018-10-01T17:41:00.816Z,98672.13
2018-10-01T17:43:29.214Z,98679.20
2018-10-01T17:45:57.702Z,98691.45
2018-10-01T17:48:26.168Z,98701.03
2018-10-01T17:50:54.669Z,98699.91
2018-10-01T17:53:23.192Z,98710.19
2018-10-01T17:55:51.679Z,98717.02
2018-10-01T17:58:31.125Z,98723.05
2018-10-01T18:00:59.663Z,98724.25
2018-10-01T18:03:28.185Z,98722.62
2018-10-01T18:05:56.699Z,98729.20
2018-10-01T18:08:25.055Z,98733.36
2018-10-01T18:10:53.636Z,98740.00
2018-10-01T18:13:30.155Z,98751.95
2018-10-01T18:15:58.792Z,98748.38
2018-10-01T18:18:27.247Z,98746.83
2018-10-01T18:20:55.777Z,98744.99
2018-10-01T18:23:24.795Z,98753.20
2018-10-01T18:25:53.189Z,98757.17
2018-10-01T18:28:21.632Z,98753.85
2018-10-01T18:30:50.150Z,98759.81
2018-10-01T18:33:18.606Z,98765.20
2018-10-01T18:35:47.952Z,98770.97
2018-10-01T18:38:28.058Z,98772.91
2018-10-01T18:40:56.573Z,98774.30
2018-10-01T18:43:26.486Z,98775.14
2018-10-01T18:45:54.859Z,98774.70
2018-10-01T18:48:23.503Z,98782.35
2018-10-01T18:50:51.898Z,98792.76
2018-10-01T18:53:20.416Z,98794.02
2018-10-01T18:55:48.948Z,98802.30
2018-10-01T18:58:17.325Z,98797.11
2018-10-01T19:00:45.754Z,98803.87
2018-10-01T19:03:14.241Z,98809.05
2018-10-01T19:05:42.896Z,98813.09
2018-10-01T19:11:09.490Z,98818.38
2018-10-01T19:13:38.033Z,98821.13
2018-10-01T19:16:06.499Z,98829.92
2018-10-01T19:18:34.929Z,98833.30
2018-10-01T19:21:03.324Z,98840.16
2018-10-01T19:23:31.720Z,98832.28
2018-10-01T19:26:04.335Z,98829.55
2018-10-01T19:28:32.791Z,98828.39
2018-10-01T19:31:02.691Z,98834.28
2018-10-01T19:33:31.390Z,98839.25
2018-10-01T19:36:04.431Z,98845.84
2018-10-01T19:38:32.992Z,98846.40
2018-10-01T19:41:01.439Z,98849.94
2018-10-01T19:43:30.186Z,98851.02
2018-10-01T19:45:59.099Z,98855.55
2018-10-01T19:51:08.679Z,98857.26
2018-10-01T19:53:37.410Z,98852.34
2018-10-01T19:56:05.807Z,98849.52
2018-10-01T19:58:34.387Z,98858.04
2018-10-01T20:01:02.693Z,98862.38
2018-10-01T20:03:31.297Z,98869.68
2018-10-01T20:05:59.570Z,98872.49
2018-10-01T20:08:28.052Z,98871.44
2018-10-01T20:10:56.481Z,98875.02
2018-10-01T20:13:24.758Z,98876.87
2018-10-01T20:15:52.996Z,98876.65
2018-10-01T20:18:21.348Z,98880.19
2018-10-01T20:20:49.680Z,98883.41
2018-10-01T20:23:18.037Z,98890.00
2018-10-01T20:25:46.336Z,98887.35
2018-10-01T20:28:14.755Z,98883.18
2018-10-01T20:30:43.098Z,98886.78
2018-10-01T20:33:11.432Z,98886.33
2018-10-01T20:35:40.131Z,98883.59
2018-10-01T20:38:08.378Z,98891.09
2018-10-01T20:40:36.599Z,98892.77
2018-10-01T20:43:05.251Z,98890.59
2018-10-01T20:45:33.545Z,98896.87
2018-10-01T20:48:02.068Z,98902.67
2018-10-01T20:50:30.244Z,98902.31
2018-10-01T20:52:58.757Z,98900.20
2018-10-01T20:55:26.914Z,98904.17
2018-10-01T20:57:55.311Z,98905.58
2018-10-01T21:00:23.725Z,98909.09
2018-10-01T21:02:54.083Z,98903.05
2018-10-01T21:05:22.580Z,98897.83
2018-10-01T21:07:51.104Z,98900.42
2018-10-01T21:10:20.204Z,98902.63
2018-10-01T21:12:49.010Z,98907.91
2018-10-01T21:15:17.530Z,98907.35
2018-10-01T21:17:46.196Z,98908.67
2018-10-01T21:20:14.532Z,98912.58
2018-10-01T21:22:43.120Z,98908.98
2018-10-01T21:25:11.420Z,98913.59
2018-10-01T21:27:39.744Z,98917.53
2018-10-01T21:30:08.049Z,98914.05
2018-10-01T21:32:36.403Z,98918.30
2018-10-01T21:35:04.744Z,98916.58
2018-10-01T21:37:32.987Z,98926.56
2018-10-01T21:40:05.992Z,98918.20
2018-10-01T21:42:34.468Z,98920.48
2018-10-01T21:45:04.550Z,98931.53
2018-10-01T21:47:33.202Z,98928.80
2018-10-01T21:50:01.530Z,98926.72
2018-10-01T21:52:30.328Z,98927.13
2018-10-01T21:54:59.065Z,98929.34
2018-10-01T21:57:27.373Z,98935.99
2018-10-01T21:59:55.738Z,98940.77
2018-10-01T22:02:24.056Z,98938.57
2018-10-01T22:04:52.388Z,98946.12
2018-10-01T22:07:21.477Z,98942.67
2018-10-01T22:09:50.442Z,98943.09
2018-10-01T22:12:18.813Z,98941.77
2018-10-01T22:14:47.212Z,98942.63
2018-10-01T22:19:30.345Z,98947.94
2018-10-01T22:21:59.260Z,98946.63
2018-10-01T22:24:27.792Z,98943.90
2018-10-01T22:26:56.037Z,98944.39
2018-10-01T22:34:03.395Z,98940.00
2018-10-01T22:36:32.060Z,98936.99
2018-10-01T22:39:00.500Z,98941.31
2018-10-01T22:41:28.772Z,98936.08
2018-10-01T22:43:57.328Z,98937.36
2018-10-01T22:46:25.699Z,98939.13
2018-10-01T22:48:54.033Z,98928.48
2018-10-01T22:51:22.484Z,98929.25
2018-10-01T22:54:30.911Z,98942.94
2018-10-01T22:56:59.279Z,98938.91
2018-10-01T22:59:27.586Z,98948.53
2018-10-01T23:01:55.992Z,98946.98
2018-10-01T23:04:27.484Z,98946.94
2018-10-01T23:06:56.003Z,98944.80
2018-10-01T23:09:24.332Z,98942.17
2018-10-01T23:11:52.650Z,98940.84
2018-10-01T23:14:21.370Z,98946.66
2018-10-01T23:16:49.616Z,98944.09
2018-10-01T23:19:17.863Z,98943.77
2018-10-01T23:21:46.110Z,98949.55
2018-10-01T23:24:14.413Z,98957.11
2018-10-01T23:26:42.709Z,98961.12
2018-10-01T23:29:11.007Z,98953.84
2018-10-01T23:31:39.295Z,98957.00
2018-10-01T23:34:07.687Z,98963.68
2018-10-01T23:36:35.907Z,98971.15
2018-10-01T23:39:05.077Z,98969.00
2018-10-01T23:41:33.335Z,98967.70
2018-10-01T23:44:01.824Z,98965.09
2018-10-01T23:46:30.086Z,98964.60
2018-10-01T23:48:58.346Z,98966.76
2018-10-01T23:51:26.609Z,98967.62
2018-10-01T23:53:54.819Z,98964.05
2018-10-01T23:56:23.045Z,98971.91
2018-10-01T23:58:51.256Z,98972.78
